events-overview

Kinetic Sprint

 

Overall Women

Lake Anna State Park - Spotsylvania, VA 5/11/2014 09:00AM

** Results are for the private use of participants and are the Intellectual Property of Set Up Events. Unauthorized use of these results is prohibited.

Place Bib Co Ag S NAME city/state Rank SWIM Rank T1 Rank Bike Rank T2 Rank RUN PENALTY TIME DQ
1449 42FHeather WestermanLigonier PA100:09:08400:01:48100:40:401400:00:581300:22:19 01:14:52 
2533 29FLiz WhiteleyWashington DC300:10:34200:01:39300:42:43200:00:44500:21:18 01:16:56 
3210 32FDina SulymaPotomac Falls VA6600:13:46800:01:55200:41:13500:00:49900:21:54 01:19:35 
4222 36FKristine WootenReston VA2700:12:351000:01:58400:43:041200:00:561200:22:18 01:20:48 
5316 39FMandy LovettAllentown PA500:10:541200:01:58500:43:05700:00:512900:24:24 01:21:10 
6260 30FLauren LipseyWashington DC700:11:16300:01:451700:46:07300:00:46600:21:19 01:21:11 
7391 26FAshley KearcherMorgantown WV2500:12:312000:02:121100:45:311700:00:59300:20:45 01:21:55 
8520 33FMacKenzie YatesWashington DC3300:12:45900:01:57600:43:442000:00:591500:23:05 01:22:29 
9158 18FLaura SullivanVienna VA200:09:361300:01:594000:48:34800:00:52700:21:32 01:22:32 
10428 37FKathy LettFalls Church VA3700:12:543000:02:17800:44:471000:00:541900:23:37 01:24:28 
11107 43FSusan WinkloskyAshburn VA3500:12:504600:02:29700:44:211600:00:582400:23:53 01:24:29 
12275 31FKara YeaterAlexandria VA600:11:125400:02:373100:47:225800:01:141400:23:05 01:25:28 
13670 33FJen SykesAlexandria VA800:11:232600:02:13900:44:544000:01:085500:26:08 01:25:45 
14106 36FFlorence LamirandJeffersonton VA6800:13:512100:02:123000:47:161800:00:591000:21:58 01:26:15 
15295 51FKatherine McKnightFairfax VA4200:13:053400:02:212000:46:312400:01:011700:23:31 01:26:28 
16390 32FJune FirkserCherry Hill NJ6100:13:381800:02:101400:45:552900:01:033100:24:32 01:27:17 
17576 30FErin CollierWashington DC6300:13:411900:02:111200:45:392700:01:024000:25:17 01:27:49 
18588 31FHolly TompkinsArlington VA4100:13:051500:02:091500:46:045300:01:125100:25:54 01:28:23 
19485 25FBridget StichnotCharlottesville VA5800:13:3410300:03:136300:50:481300:00:56100:20:07 01:28:36 
20113 37FGretchen CullenbergArlington VA5000:13:252300:02:131800:46:087400:01:184900:25:45 01:28:47 
21516 48FJennifer RentchWashington DC3400:12:501400:02:082100:46:386900:01:175700:26:12 01:29:03 
22591 34FErin GreenWilmington NC2400:12:283600:02:233300:47:464900:01:124500:25:28 01:29:16 
23122 28FKate TusseyFalls Church VA5900:13:354100:02:254200:48:401100:00:552200:23:48 01:29:21 
24532 47FStephenie WinterWrightsville Beach NC5600:13:332500:02:132500:46:528800:01:234300:25:26 01:29:25 
25442 34FJaclyn RiebenLeesburg VA400:10:409700:03:076700:50:576200:01:142000:23:45 01:29:43 
26590 30FJulia HoppockWashington DC2800:12:372200:02:133700:48:1411000:01:333600:25:09 01:29:43 
27361 52FShannon BarrasCharlottesville VA13100:15:518000:02:571300:45:483400:01:052600:24:07 01:29:45 
28358 36FMargaret GrayHerndon VA7800:14:113500:02:234400:48:552600:01:012100:23:47 01:30:16 
2972 42FPauline OwenKing George VA2600:12:322800:02:162800:47:106500:01:157200:27:04 01:30:16 
30156 33FJulie GunzenhaeuserArlington VA1200:11:593100:02:182400:46:489100:01:249200:27:57 01:30:24 
PlaceBibCoAgSNAMEcity/stateRankSWIMRankT1RankBikeRankT2RankRUNPENALTYTIMEDQ
31393 27FJulie BrownArlington VA2900:12:404300:02:274800:49:1410700:01:313300:24:37 01:30:27 
32274 37FSarah CarruthArlington VA2300:12:262400:02:135000:49:245700:01:144600:25:29 01:30:44 
33269 52FKellie MastrodonatoArlington VA11000:15:091700:02:103400:47:488300:01:202800:24:20 01:30:45 
34203 48FKris ToomeyZionsville PA1500:12:063900:02:244500:48:5611200:01:345300:26:02 01:30:59 
35243 41FNicole GoergeRuckersville VA19000:17:54500:01:493900:48:323200:01:041100:21:59 01:31:16 
36224 33FMegan CarneyArlington VA3800:12:552700:02:141900:46:315600:01:1410900:28:30 01:31:22 
37421 36FCarolyn BasistaWashington DC4400:13:098300:02:593500:48:1012500:01:394700:25:29 01:31:23 
38294 56FConnie MaxwellNewport News VA5700:13:343700:02:231000:45:034600:01:1012500:29:21 01:31:30 
39632A28FSamantha MaderArlington VA4900:13:217300:02:541600:46:068900:01:239300:27:59 01:31:41 
40125 31FJennifer TuckerStafford VA10100:14:54700:01:554900:49:152200:01:013400:24:41 01:31:43 
41552 17FKara KendallOak Hill VA7000:13:589900:03:108000:52:333500:01:05800:21:34 01:32:17 
42582 38FCourtney InglefieldReston VA9900:14:527500:02:563600:48:1110400:01:293900:25:17 01:32:43 
43139 29FKristen KleshArlington VA14700:16:184700:02:294300:48:488000:01:192300:23:52 01:32:45 
44352 49FAlison SimonWashington DC10500:14:583300:02:204600:48:572500:01:015000:25:47 01:33:00 
45239 33FAddie SchroederArlington VA12400:15:308800:03:022600:47:0020000:02:164800:25:31 01:33:16 
46417 31FRachael BoschWashington DC12900:15:474000:02:244700:48:572100:01:003800:25:16 01:33:22 
47100 37FElizabeth ColemanWashington DC14200:16:108500:03:002700:47:037200:01:175600:26:10 01:33:38 
4890 41FAndrea LatellIrvington VA1900:12:174200:02:253200:47:3513400:01:4113300:29:55 01:33:51 
49160 29FSarah GansleinWashington DC6500:13:4414000:03:385200:49:4720900:02:233200:24:35 01:34:06 
5092 45FHolly NorthupNewport News VA900:11:431600:02:107200:51:354200:01:098800:27:40 01:34:15 
51457 31FSika HenryNewport News VA5500:13:3110900:03:1611700:54:5012400:01:39400:21:00 01:34:15 
52220 43FAlice CuninNorfolk VA6200:13:409000:03:049200:53:29     01:34:23 
53174 45FStephanie SeibergBethesda MD7900:14:145200:02:345500:50:118700:01:226300:26:25 01:34:45 
54476 29FLannie MarshArlington VA5300:13:283800:02:249000:53:222300:01:013500:24:41 01:34:55 
55252 31FMegan Sowder-StaleyWashington DC5200:13:2710800:03:165300:50:0117200:01:586200:26:23 01:35:03 
56433 50FMartha HowarLeesburg VA9200:14:3914800:03:475700:50:2415800:01:533000:24:28 01:35:08 
5753 45FEmily ArmstrongRockville MD15900:16:489300:03:052300:46:4811500:01:357100:26:59 01:35:14 
58377 30FCarolyn KilkusBethesda MD3900:13:0112600:03:3011200:54:33400:00:481600:23:27 01:35:17 
59553 16FCasey KendallOak Hill VA6900:13:5810100:03:1014400:56:55900:00:54200:20:35 01:35:30 
60230 28FJennifer WeaverChantilly VA2200:12:2311900:03:2310200:53:49100:00:424100:25:22 01:35:37 
61596 55FEllen GuintherRichmond VA1100:11:548200:02:589700:53:4313500:01:414400:25:26 01:35:40 
PlaceBibCoAgSNAMEcity/stateRankSWIMRankT1RankBikeRankT2RankRUNPENALTYTIMEDQ
62497 48FJami Callahan-BrillHampton VA3600:12:516400:02:467400:51:589900:01:287000:26:57 01:35:58 
63594 39FAndrea WuebkerMinneapolis MN8700:14:359600:03:076800:51:029700:01:275400:26:08 01:36:17 
64507 53FCynthia RevesmanHerndon VA8300:14:2710500:03:156400:50:5010800:01:315900:26:18 01:36:19 
65244 30FAdrianne BrakefieldWashington Dc DC6700:13:494800:02:316100:50:416700:01:1610200:28:13 01:36:27 
66479 26FAlexis LevinsonWashington DC10600:14:5913800:03:385800:50:2817800:02:034200:25:24 01:36:30 
67464 43FLynette MasonNorfolk VA11100:15:108900:03:036200:50:4116000:01:535800:26:14 01:36:59 
6818 49FShannon BairdFalls Church VA18200:17:435000:02:332200:46:3811800:01:3711200:28:33 01:37:02 
69124 48FMichele PotterGermantown MD8500:14:3215500:03:516900:51:166300:01:146000:26:20 01:37:11 
7061 31FLisa KohlWashington DC4800:13:218700:03:028200:53:007000:01:176500:26:35 01:37:13 
71499 31FSierra WinserKing George VA1000:11:517400:02:547000:51:2319300:02:1214000:30:10 01:38:28 
72103 40FLaure RayRichmond VA1800:12:116700:02:488800:53:188500:01:2112300:29:07 01:38:44 
73677NF35FLaurie JohnsonCentreville VA16200:16:5615300:03:503800:48:1523100:02:467600:27:09 01:38:54 
74425 32FChristy WahleAlexandria VA9400:14:425900:02:418600:53:105900:01:147500:27:08 01:38:54 
75478 27FKathryn PurdyArlington VA16100:16:555700:02:416500:50:519500:01:267300:27:04 01:38:56 
76484 28FCaroline PhillipsWashington DC5400:13:316300:02:4510300:53:495100:01:129100:27:49 01:39:03 
77643NF39FToni KernsWashington DC3200:12:4316300:03:5412100:55:083800:01:076100:26:21 01:39:11 
78330 35FErica RobertsSterling VA12100:15:273200:02:1910000:53:4710200:01:286700:26:43 01:39:43 
79535 26FSara LariosWashington DC7400:14:022900:02:1711000:54:2310600:01:318600:27:37 01:39:47 
8056 32FAmie QuinnReston VA7500:14:026900:02:527800:52:2310000:01:2812600:29:23 01:40:06 
81245 51FJennifer BauerleCharlottesville VA15400:16:3414600:03:435100:49:2516200:01:5411600:28:44 01:40:19 
82364 19FLaura MillerCollege Park MD11300:15:164500:02:2811100:54:244700:01:107400:27:08 01:40:24 
83320 42FCarolyn HansonAlexandria VA7600:14:0712300:03:289400:53:357800:01:1810400:28:19 01:40:46 
84197 29FBrittany BirdArlington VA1400:12:059800:03:097700:52:1920700:02:2114900:30:55 01:40:48 
85641 28FTessa WinnMontgomery Village MD2000:12:1910200:03:127500:52:041500:00:5816400:32:20 01:40:51 
86472 41FSandy EliaKing George VA7700:14:096600:02:477100:51:2914400:01:4714400:30:42 01:40:51 
87296 33FAmanda WatkinsNewport News VA16300:16:5714500:03:4311800:54:524800:01:102700:24:19 01:41:00 
8815MF28FJenna ShephardFort Belvoir VA10900:15:085500:02:3910500:53:49600:00:5011500:28:44 01:41:08 
8981 44FLisa MackemReston VA20100:18:2010000:03:104100:48:3915300:01:4912400:29:20 01:41:16 
90213 27FSarah KennelleyWashington Dc DC6400:13:421100:01:5814200:56:534400:01:108300:27:36 01:41:17 
91501 52FKristina AmentAlexandria VA12500:15:3220300:04:375900:50:3518700:02:0611000:28:32 01:41:20 
92236 28FSandy SuWashington DC7200:14:0019200:04:219900:53:4414600:01:478400:27:36 01:41:26 
PlaceBibCoAgSNAMEcity/stateRankSWIMRankT1RankBikeRankT2RankRUNPENALTYTIMEDQ
93629A39FNathalie BehnMcLean VA23500:21:395300:02:352900:47:156000:01:1412100:28:54 01:41:36 
94562 46FBrooke CurranAlexandria VA21700:19:0116400:03:558500:53:0519400:02:121800:23:36 01:41:46 
95441 34FNatalie KempkeyWashington DC8400:14:2817100:03:596600:50:5713200:01:4115200:31:07 01:42:11 
96308 31FElizabeth WestbrookWashington DC10300:14:5523800:05:1810400:53:4924400:03:043700:25:15 01:42:19 
97332 44FShira YoffeWashington DC10700:15:0111700:03:218100:52:5021000:02:2412000:28:50 01:42:24 
98396 34FJennifer MedinaFalls Church VA1300:12:0013500:03:3514500:56:5518300:02:049400:27:59 01:42:32 
99306 53FJanet JanasClifton VA2100:12:216000:02:4313200:56:2519000:02:1012200:29:02 01:42:40 
100681NF30FKatherine DintermanWashington DC19700:18:0313400:03:357300:51:58     01:42:47 
101246 34FAlison EddyArlington VA9800:14:5019700:04:285400:50:0915200:01:4915900:31:59 01:43:13 
102496 27FSara JoseyFredericksburg VA11400:15:1719900:04:309800:53:4318500:02:0510000:28:08 01:43:41 
103370 28FAleza CainArlington VA4500:13:1116000:03:5213900:56:5020500:02:198900:27:42 01:43:53 
104676 38FMelissa EricksonYorktown VA20300:18:2116900:03:589100:53:242800:01:037700:27:09 01:43:54 
105194 33FSarah McKenzieArlington VA13800:16:038100:02:5713400:56:3614500:01:476600:26:39 01:44:00 
106540 41FJoanna SilverSilver Spring MD17000:17:215100:02:3311300:54:3615900:01:538700:27:40 01:44:01 
107598 52FTeresa DumpeHagerstown MD18300:17:4412700:03:328900:53:198200:01:1910100:28:13 01:44:04 
108655NF23FHannah HoffmanWashington DC16700:17:1213600:03:3610800:54:0418400:02:048000:27:13 01:44:06 
109521 16FIris GonzalezPort Republic MD9600:14:4511100:03:1716000:58:095500:01:146800:26:46 01:44:09 
11016MF46FDiana StaneszewskiArlington VA11600:15:186100:02:4412000:54:548400:01:2013600:30:03 01:44:18 
111572 32FMargaret ChadbournWashington DC4600:13:14600:01:5317800:59:4820300:02:187800:27:10 01:44:21 
112642 27FNora LewisWashington DC7300:14:028400:02:598700:53:1516800:01:5716800:32:30 01:44:41 
113251 25FRachel SparksAshburn VA1700:12:0811300:03:1911500:54:4013700:01:4417900:33:01 01:44:50 
114565 38FJulia TaylorStafford VA13400:15:5418700:04:1611900:54:5421700:02:318200:27:34 01:45:07 
115228 30FKate ShineArlington VA4000:13:0417800:04:0414100:56:5214300:01:4612800:29:31 01:45:15 
116671NF31FLauren AnnebergWashington DC14800:16:2012500:03:2913500:56:423100:01:049000:27:44 01:45:18 
117630A37FTricia KaneArlington VA11800:15:229400:03:058400:53:0412700:01:4016300:32:12 01:45:21 
118511 46FLaura JacksonArlington VA12200:15:2718300:04:0917600:59:4317600:02:002500:24:04 01:45:22 
119195 35FBecky BaltesSilver Spring MD21100:18:387100:02:5310900:54:197700:01:1810300:28:17 01:45:24 
120282 56FMarjorie AuerAlexandria VA12300:15:284400:02:286000:50:3714700:01:4720600:35:13 01:45:31 
121204 40FAya MimuraWashington DC3100:12:4213200:03:3417300:59:0814100:01:4511700:28:46 01:45:52 
122287 60FMaggie BartlettBoyds MD9300:14:4112200:03:2712500:55:399400:01:2614500:30:44 01:45:56 
123298 25FCatherine TrainorWashington DC8100:14:1511000:03:1617000:58:5111900:01:3710800:28:28 01:46:25 
PlaceBibCoAgSNAMEcity/stateRankSWIMRankT1RankBikeRankT2RankRUNPENALTYTIMEDQ
124235 38FErin McManamonArlington VA14100:16:0821000:04:4310700:53:5221200:02:2513000:29:34 01:46:40 
125515 30FSusan ConwayArlington VA17700:17:3613100:03:339500:53:4016900:01:5813700:30:06 01:46:51 
12639 38FMaureen DunniganSterling VA15600:16:4521200:04:4511600:54:4118100:02:0411800:28:47 01:46:59 
127538 44FSioban CastorWashington Dc DC20600:18:2918200:04:085600:50:1523700:02:5215300:31:23 01:47:05 
128505 40FGwynne ReidFairfax VA19600:18:0117600:04:0312800:55:4917000:01:588100:27:19 01:47:08 
129257 34FAllison DrezekRichmond VA11700:15:2213700:03:3610100:53:4713600:01:4317700:32:49 01:47:16 
130574 31FJessika BriggsVirginia Beach VA6000:13:375800:02:4116400:58:2613100:01:4015000:30:59 01:47:22 
131348 60FCarol GruenburgAlexandria VA10200:14:5422300:05:0013600:56:4321400:02:2711400:28:37 01:47:40 
132646NF27FXoco ShinbrotArlington VA14000:16:086500:02:4715600:57:443600:01:0613900:30:10 01:47:53 
133557 44FLisa HarfootAlexandria VA10400:14:577200:02:5316200:58:1812800:01:4013800:30:07 01:47:53 
134135A42FTraci MarinBristow VA9500:14:457800:02:5711400:54:3811100:01:3319700:34:05 01:47:56 
135448 45FKatrina KoomeyArlington VA17600:17:3615000:03:477600:52:1722900:02:4315700:31:56 01:48:16 
136463 41FKerensa HadleyFairfax VA11200:15:154900:02:3215300:57:323900:01:0815600:31:51 01:48:16 
137634A36FDebbie PedersonAlexandria VA5100:13:2512000:03:2416300:58:216800:01:1717200:32:35 01:48:59 
138322 49FMarnie DeatonRuckersville VA9100:14:389100:03:0414900:57:0616700:01:5616500:32:21 01:49:03 
139575 41FSherri BrothersAlexandria VA12700:15:3911800:03:2213700:56:459300:01:2516000:32:03 01:49:11 
140477 44FSarah WaldmanArlington VA22300:19:3517900:04:0512600:55:4216400:01:559500:28:01 01:49:16 
141631A30FCortney DonnalleyWashington DC14600:16:1712800:03:3214600:56:5914000:01:4514700:30:49 01:49:21 
142225 53FHeike YatesSilver Spring MD22100:19:2118500:04:1115100:57:1515100:01:487900:27:12 01:49:45 
143397 56FJoni BrigantiSpotsylvania VA8000:14:1517500:04:0212700:55:4221300:02:2718900:33:28 01:49:51 
144227 38FHeather McGowanArlington VA17200:17:2224300:05:3913100:56:1824200:03:038500:27:36 01:49:57 
145119 19FLia RussellRichmond VA13700:16:0123600:05:1515900:57:5420100:02:1811100:28:32 01:49:58 
146661NF30FGrace CarrollWashington DC22600:20:0116700:03:5716900:58:5011300:01:346400:26:28 01:50:48 
147277 51FDonna SumptionArlington VA24500:23:37100:00:008300:53:0023300:02:4915400:31:39 01:51:04 
148729NF43FJennifer HomendyFredericksburg VA11500:15:1810600:03:1518301:00:1315700:01:5114200:30:39 01:51:14 
149166 46FBonnie McCreadyArlington VA16400:17:0819800:04:2912400:55:3312100:01:3817300:32:37 01:51:22 
150321 50FMargaret KrickFredericksburg VA15200:16:288600:03:019600:53:4117500:02:0021600:36:20 01:51:29 
151273 48FSherri SabolVirginia Beach VA8600:14:335600:02:3920801:03:275000:01:1213200:29:46 01:51:35 
152318 34FShannon CooperLocust Grove VA8200:14:1810400:03:1317200:59:0114900:01:4718800:33:25 01:51:43 
153399 29FErin DonovanHarpers Ferry WV8800:14:3518100:04:0618901:00:5222600:02:4212900:29:34 01:51:46 
15476 67FKari SprecherLeesburg VA17400:17:3011600:03:2012200:55:1719700:02:1419000:33:31 01:51:50 
PlaceBibCoAgSNAMEcity/stateRankSWIMRankT1RankBikeRankT2RankRUNPENALTYTIMEDQ
155272 38FKaty MankinAnnandale VA1600:12:0619400:04:2418701:00:487900:01:1918500:33:19 01:51:55 
156543 55FMary TognarelliRichmond VA13900:16:0417300:04:0015700:57:538100:01:1917600:32:47 01:52:02 
157656NF38FMelinda BuchananCharlottesville VA14300:16:1414200:03:4217100:58:5219600:02:1415100:31:02 01:52:02 
158586 38FJessica WyndhamWashington DC12800:15:4010700:03:1513300:56:349600:01:2620800:35:16 01:52:10 
159597 48FOna DosunmuWashington DC22200:19:2617400:04:019300:53:3124500:03:0916200:32:08 01:52:13 
160336 37FCatherine FocaMoseley VA4300:13:0714400:03:4321201:03:523700:01:0614600:30:47 01:52:32 
161633A30FAnne KenneyWashington DC8900:14:3618400:04:1013000:56:1017300:01:5921300:35:48 01:52:41 
16260 28FLaura SlingerlandLexington Park MD15000:16:2215600:03:517900:52:3214200:01:4623000:38:12 01:52:41 
163510 27FAllison BlajdaWashington DC21600:18:5924500:06:0415800:57:5315400:01:499900:28:07 01:52:50 
164438 45FLisa FolbCentreville VA20900:18:3418600:04:1317400:59:089800:01:2713100:29:43 01:53:04 
16526 43FRosie SjamReston VA18800:17:5414100:03:4112300:55:2210500:01:3020000:34:45 01:53:10 
16627 46FHala Salha FayyadRockville MD17900:17:37         01:53:26 
167276 39FSusie AhnWashington DC16600:17:117600:02:5616100:58:1620800:02:2217500:32:43 01:53:27 
168142 42FStacy VasquezHyattsville MD22500:19:4713900:03:3812900:55:5619100:02:1016100:32:04 01:53:33 
169439 49FMarcia InsleyArlington VA23300:21:2620800:04:4014800:57:0222500:02:419700:28:06 01:53:53 
170549 51FMary MeckleyVa VA15300:16:3122500:05:0216700:58:4417900:02:0315500:31:45 01:54:03 
171327 33FAlexis SoderlundMcLean VA23200:21:2414700:03:4610600:53:5221900:02:3717400:32:42 01:54:19 
172469 51FJulia KadisonWashington DC15800:16:4723500:05:1320101:02:4610900:01:339600:28:03 01:54:20 
173672NF40FErika ShaughnessyFredericksburg VA13500:15:5525200:06:4417900:59:5124800:03:4010600:28:24 01:54:32 
174648NF40FSuzanne CroyVienna VA19900:18:0615900:03:5215200:57:1814800:01:4719400:33:43 01:54:45 
175490 60FBonnie DattelVirginia Beach VA20700:18:2925500:07:0417500:59:217300:01:1711300:28:35 01:54:45 
176162 30FFrances TurnerAlexandria VA18400:17:4411400:03:2021501:04:265200:01:129800:28:07 01:54:48 
177253 57FMary FosterLaytonsville MD17100:17:2119300:04:2114000:56:5215500:01:5019900:34:43 01:55:05 
178474 24FAmy BoermanArlington VA12000:15:2412400:03:2919701:02:026400:01:1518600:33:20 01:55:28 
179241 37FKatherine LindlerPoquoson VA14400:16:1513300:03:3418501:00:4316300:01:5418000:33:04 01:55:28 
180649NF20FPavla OvtchinnikovaWorcester MA23100:21:196800:02:5014300:56:547500:01:1818200:33:10 01:55:30 
181450 32FAlexis LayneFalls Church VA10800:15:0515200:03:5019201:01:2221100:02:2418400:33:18 01:55:57 
182578 55FSharon GriffingSpringfield VA21300:18:5023400:05:1120901:03:3022200:02:395200:26:00 01:56:08 
183654NF39FJennifer ConnorArlington VA9000:14:3719000:04:1718000:59:5418200:02:0421000:35:27 01:56:17 
184217 39FCalaneet BalasWashington DC14500:16:1718000:04:0618201:00:0724100:03:0317800:32:50 01:56:21 
185304 37FMary Beth BruggemanBurke VA4700:13:2015700:03:5123901:09:5622400:02:416900:26:53 01:56:38 
PlaceBibCoAgSNAMEcity/stateRankSWIMRankT1RankBikeRankT2RankRUNPENALTYTIMEDQ
18644 34FJessica MummeAnnandale VA18000:17:3825000:06:3418100:59:547100:01:1715800:31:57 01:57:19 
187645NF39FKristy HobenPartlow VA22400:19:456200:02:4415500:57:4315000:01:4721100:35:35 01:57:32 
18889 24FStephanie SchneiderEllicott City MD13300:15:5315800:03:5116500:58:3416100:01:5422700:37:26 01:57:37 
189416 42FJennifer MasonVirginia Beach VA11900:15:239500:03:0614700:57:0013800:01:4424000:40:28 01:57:39 
190108 12FKatie WinkloskyAshburn VA3000:12:427900:02:5724701:12:514300:01:0910500:28:24 01:58:01 
191640NF30FSarah KingFredericksburg VA20000:18:1216100:03:5221701:04:554500:01:1013500:30:00 01:58:07 
192424 37FCatherine HallArlington VA18600:17:5020200:04:3617700:59:4523500:02:5118300:33:12 01:58:12 
193542 28FAlexis MillerWashington DC21500:18:587700:02:5622101:05:073000:01:0414300:30:42 01:58:45 
194567 30FBao Tran PhamVienna VA22800:20:3921300:04:4516600:58:3522100:02:3816700:32:28 01:59:03 
195657NF25FKayla MarshallCharlottesville VA16800:17:1519100:04:1822901:07:0310300:01:2912700:29:27 01:59:30 
196148 34FElena DigiovannaWashington DC20200:18:2021800:04:5619401:01:3817700:02:0018100:33:05 01:59:56 
19754 47FPatty GlassManassas Park VA12600:15:3313000:03:3313800:56:4816600:01:5625000:42:48 02:00:36 
198319 36FLindsay RitterWashington DC15500:16:4221900:04:5621801:05:0118000:02:0314100:30:1300:02:0002:00:53 
199407 35FKimberly HerbertSpringfield VA19500:18:0018800:04:1718801:00:5221500:02:2821700:36:36 02:02:10 
200663NF29FKate HubbardWashington DC15100:16:2623200:05:0919901:02:3823600:02:5120400:35:10 02:02:12 
201434 53FLynne SwartzCentreville VA25800:29:1020500:04:3915000:57:1024000:03:0310700:28:28 02:02:27 
202498 32FElizabeth Nicoletti SheehWashington DC21000:18:3724000:05:2119501:01:454100:01:0821400:36:04 02:02:53 
203577NF48FSara PooreFredericksburg VA21400:18:5720600:04:3920201:02:5623200:02:4719500:33:45 02:03:02 
204651NF40FKirsten MunzFairfax VA16000:16:5022800:05:0523201:07:467600:01:1817000:32:34 02:03:31 
205271 53FSusan LeavittWashington DC19400:17:5822000:04:5619601:01:4915600:01:5122300:37:00 02:03:32 
206437 30FCesse IpWashington DC21900:19:0823700:05:1719101:01:0023900:02:5718700:33:2500:02:0002:03:44 
207680NF44FDawn ReposkyCharlotte Hall MD24200:23:0617700:04:0318401:00:3020400:02:1920100:34:47 02:04:43 
208650NF38FMiklane ChangFairfax VA7100:14:0023100:05:0923801:09:2522800:02:4319200:33:33 02:04:47 
209635A50FKris PetersenSilver Spring MD13200:15:537000:02:5215400:57:3912000:01:3725400:47:11 02:05:10 
210665NF34FKatherine GajewskiPhiladelphia PA14900:16:2116800:03:5822601:06:1913300:01:4122200:36:58 02:05:15 
21138NF36FNancy WallaceWashington DC17300:17:2714900:03:4723701:09:053300:01:0419600:33:55 02:05:16 
212470 26FHaley DeschampsAnnapolis MD15700:16:4623900:05:2022501:06:1120200:02:1820200:34:59 02:05:32 
21348 60FJudith FitzpatrickTakoma Park MD18900:17:5419500:04:2422201:05:1723000:02:4420900:35:21 02:05:37 
214679NF40FChristina CaesarCatonsville MD10000:14:5224800:06:1324401:11:015400:01:1416600:32:26 02:05:44 
215675NF32FNicole McLaughlinFort Monroe VA24000:22:1817000:03:5920401:03:1222300:02:4019300:33:41 02:05:47 
216454 62FLeanne LayneSpringfield VA20500:18:2816200:03:5320001:02:4520600:02:2123300:38:50 02:06:15 
PlaceBibCoAgSNAMEcity/stateRankSWIMRankT1RankBikeRankT2RankRUNPENALTYTIMEDQ
217581 55FEileen McConkieColonial Beach VA18700:17:5222400:05:0121301:04:0625000:03:4521200:35:43 02:06:25 
21821 36FSamantha GallagherAlexandria VA23400:21:3314300:03:4219801:02:0419900:02:1522000:36:57 02:06:30 
219658NF28FKatherine StallingsFalls Church VA21800:19:0311500:03:2023301:08:2311700:01:3619800:34:24 02:06:44 
220653NF50FKatarina AuerArlington VA21200:18:4619600:04:2621001:03:3824600:03:1121900:36:55 02:06:54 
221673NF24FElissa GathmanFairfax VA16900:17:2022900:05:0622401:06:0917400:01:5922400:37:06 02:07:38 
222110 32FSheila DicostanzaArlington VA13600:15:5818900:04:1723101:07:4024900:03:4321500:36:15 02:07:51 
223662NF53FWestley Du PontCharlottesville VA19100:17:5416600:03:5719301:01:2719500:02:1424700:42:25 02:07:55 
224367 35FAngela HennessyGreenbelt MD           02:07:57 
225263 52FPatricia StiegmanLusby MD22900:20:4321600:04:5321101:03:4912300:01:3922500:37:09 02:08:11 
226453 63FPat BloodMcLean VA19800:18:0321500:04:5022301:05:4121600:02:3122800:37:33 02:08:36 
227247 29FLindsay MulcahyArlington VA20400:18:2624600:06:0624801:12:5411400:01:3413400:30:00 02:08:58 
228674NF31FChristina JenningsFredericksburg VA22000:19:1522200:04:5822001:05:0323800:02:5322100:36:57 02:09:05 
229328 33FVanessa TesorieroWashington DC23900:22:1724700:06:0922801:06:2816500:01:5516900:32:32 02:09:19 
230293 32FCynthia LeonCharlottesville VA23000:21:1521700:04:5320701:03:156600:01:1623800:40:02 02:10:39 
231292 31FNicole ShepardStaunton VA13000:15:4925700:10:2120601:03:1313000:01:4023500:39:37 02:10:39 
23263 34FRachel CramerAlexandria VA22700:20:3012900:03:3221901:05:018600:01:2123900:40:18 02:10:41 
233539 29FJulia SullivanHerndon VA24900:24:479200:03:0524901:12:5411600:01:3611900:28:49 02:11:09 
234283NF47FMartha HenebryWashington DC25700:28:0224400:06:0020501:03:1210100:01:2817100:32:34 02:11:15 
235647NF29FLaura JohnsWashington DC24100:22:5717200:04:0022701:06:229200:01:2421800:36:38 02:11:19 
236471 28FJessica KirbyOdenton MD23700:22:0615100:03:4923501:08:4318800:02:0620700:35:14 02:11:56 
23779 38FSusan KuselArlington VA23800:22:1420400:04:3920301:03:026100:01:1424200:40:50 02:11:56 
238659NF28FJackie AndersonAlexandria VA19300:17:5720900:04:4124501:11:491900:00:5922600:37:25 02:12:49 
239517 46FLisa SylviaFredericksburg VA18500:17:4620100:04:3225101:14:5719200:02:1019100:33:33 02:12:57 
240154 60FAnne WoodFairfax VA24600:24:2215400:03:5021601:04:4313900:01:4523200:38:49 02:13:27 
241137 47FSuji BrownReston VA25400:25:3621100:04:4319001:00:5912200:01:3824500:41:48 02:14:42 
242638NF49FSusan SigmonStafford VA17500:17:3322100:04:5824601:12:1019800:02:1523400:38:57 02:15:50 
243669NF45FJulie NaffAnnandale VA24300:23:1025600:07:0518601:00:4425200:03:5624300:41:27 02:16:21 
244667NF29FKate CobbsSterling VA17800:17:3622600:05:0424201:10:3622000:02:3724100:40:42 02:16:34 
245109 32FBecca ShaneWashington DC24800:24:3422700:05:0424301:10:4612600:01:3920300:35:01 02:17:03 
24698 41FMelanie KoelschManassas VA25900:31:2212100:03:2621401:04:0712900:01:4022900:37:43 02:18:17 
247668NF44FKathleen SweeneyAlexandria VA20800:18:3024100:05:3423401:08:4225100:03:4924600:41:59 02:18:33 
PlaceBibCoAgSNAMEcity/stateRankSWIMRankT1RankBikeRankT2RankRUNPENALTYTIMEDQ
248639NF35FEugenia GregorioArlington VA19200:17:5525400:06:5823001:07:1224700:03:2925100:43:01 02:18:33 
249636A31FCatharine MyungWashington DC16500:17:0823000:05:0616800:58:4523400:02:5125500:57:26 02:21:14 
250378 39FLesley EicherHarrisonburg VA9700:14:4724900:06:1925001:14:0625400:05:0124900:42:37 02:22:49 
25159 49FJennifer A McCannWashington DC25200:25:1121400:04:4924101:10:1124300:03:0423600:39:39 02:22:52 
252338 43FJennifer SchellerSilver Spring MD25600:26:1620700:04:3925201:15:1217100:01:5820500:35:11 02:23:14 
253115 43FErin LintonPotomac MD           02:24:15 
254683NF27FDesiree BoucherArlington VA25500:26:1316500:03:5724001:09:5921800:02:3324400:41:41 02:24:22 
255313 24FSarah TruittWashington DC24700:24:3311200:03:1825301:16:599000:01:2423700:39:40 02:25:52 
256146 35FShabnaum AmjadAlexandria VA23600:21:5324200:05:3525401:20:1518600:02:0523100:38:20 02:28:07 
257381 46FRebecca KuperGermantown MD25300:25:2620000:04:3223601:08:4325300:04:4425200:45:22 02:28:45 
25869 37FKatie JacksonWashington DC25000:25:0025300:06:5725501:24:4725500:05:2914800:30:54 02:33:05 
259286 33FLeigh MaysAlexandria VA25100:25:0425100:06:3525601:25:5718900:02:0724800:42:31 02:42:12 
260627A34FAngela AdelmanBaltimore MD24400:23:1723300:05:1025701:27:4322700:02:4225300:46:07 02:44:57 

** Results are for the private use of participants and are the Intellectual Property of Set Up Events. Unauthorized use of these results is prohibited.